sensor_id;sensor_type;location;lat;lon;timestamp;temperature;humidity
20041;DHT22;10181;48.072;9.884;2024-01-06T00:00:54;4.50;99.90
20041;DHT22;10181;48.072;9.884;2024-01-06T00:03:20;4.50;99.90
20041;DHT22;10181;48.072;9.884;2024-01-06T00:05:46;4.50;99.90
20041;DHT22;10181;48.072;9.884;2024-01-06T00:08:11;4.50;99.90
20041;DHT22;10181;48.072;9.884;2024-01-06T00:10:37;4.50;99.90
20041;DHT22;10181;48.072;9.884;2024-01-06T00:13:02;4.50;99.90
20041;DHT22;10181;48.072;9.884;2024-01-06T00:15:28;4.50;99.90
20041;DHT22;10181;48.072;9.884;2024-01-06T00:17:54;4.50;99.90
20041;DHT22;10181;48.072;9.884;2024-01-06T00:20:19;4.40;99.90
20041;DHT22;10181;48.072;9.884;2024-01-06T00:22:45;4.50;99.90
20041;DHT22;10181;48.072;9.884;2024-01-06T00:25:10;4.40;99.90
20041;DHT22;10181;48.072;9.884;2024-01-06T00:27:36;4.40;99.90
20041;DHT22;10181;48.072;9.884;2024-01-06T00:30:02;4.40;99.90
20041;DHT22;10181;48.072;9.884;2024-01-06T00:32:27;4.40;99.90
20041;DHT22;10181;48.072;9.884;2024-01-06T00:34:54;4.40;99.90
20041;DHT22;10181;48.072;9.884;2024-01-06T00:37:19;4.40;99.90
20041;DHT22;10181;48.072;9.884;2024-01-06T00:39:45;4.30;99.90
20041;DHT22;10181;48.072;9.884;2024-01-06T00:42:10;4.30;99.90
20041;DHT22;10181;48.072;9.884;2024-01-06T00:44:36;4.30;99.90
20041;DHT22;10181;48.072;9.884;2024-01-06T00:47:02;4.30;99.90
20041;DHT22;10181;48.072;9.884;2024-01-06T00:49:28;4.30;99.90
20041;DHT22;10181;48.072;9.884;2024-01-06T00:51:53;4.40;99.90
20041;DHT22;10181;48.072;9.884;2024-01-06T00:54:19;4.40;99.90
20041;DHT22;10181;48.072;9.884;2024-01-06T00:56:45;4.40;99.90
20041;DHT22;10181;48.072;9.884;2024-01-06T00:59:10;4.40;99.90
20041;DHT22;10181;48.072;9.884;2024-01-06T01:01:36;4.40;99.90
20041;DHT22;10181;48.072;9.884;2024-01-06T01:04:01;4.40;99.90
20041;DHT22;10181;48.072;9.884;2024-01-06T01:06:27;4.40;99.90
20041;DHT22;10181;48.072;9.884;2024-01-06T01:08:53;4.40;99.90
20041;DHT22;10181;48.072;9.884;2024-01-06T01:11:19;4.40;99.90
20041;DHT22;10181;48.072;9.884;2024-01-06T01:13:44;4.40;99.90
20041;DHT22;10181;48.072;9.884;2024-01-06T01:16:10;4.30;99.90
20041;DHT22;10181;48.072;9.884;2024-01-06T01:18:36;4.40;99.90
20041;DHT22;10181;48.072;9.884;2024-01-06T01:21:01;4.30;99.90
20041;DHT22;10181;48.072;9.884;2024-01-06T01:23:27;4.40;99.90
20041;DHT22;10181;48.072;9.884;2024-01-06T01:25:54;4.40;99.90
20041;DHT22;10181;48.072;9.884;2024-01-06T01:28:20;4.40;99.90
20041;DHT22;10181;48.072;9.884;2024-01-06T01:30:45;4.40;99.90
20041;DHT22;10181;48.072;9.884;2024-01-06T01:33:11;4.40;99.90
20041;DHT22;10181;48.072;9.884;2024-01-06T01:35:36;4.40;99.90
20041;DHT22;10181;48.072;9.884;2024-01-06T01:38:02;4.40;99.90
20041;DHT22;10181;48.072;9.884;2024-01-06T01:40:28;4.40;99.90
20041;DHT22;10181;48.072;9.884;2024-01-06T01:42:53;4.40;99.90
20041;DHT22;10181;48.072;9.884;2024-01-06T01:45:19;4.40;99.90
20041;DHT22;10181;48.072;9.884;2024-01-06T01:47:45;4.40;99.90
20041;DHT22;10181;48.072;9.884;2024-01-06T01:50:12;4.40;99.90
20041;DHT22;10181;48.072;9.884;2024-01-06T01:52:39;4.30;99.90
20041;DHT22;10181;48.072;9.884;2024-01-06T01:55:06;4.30;99.90
20041;DHT22;10181;48.072;9.884;2024-01-06T01:57:31;4.20;99.90
20041;DHT22;10181;48.072;9.884;2024-01-06T01:59:57;4.10;99.90
20041;DHT22;10181;48.072;9.884;2024-01-06T02:02:23;4.10;99.90
20041;DHT22;10181;48.072;9.884;2024-01-06T02:04:48;4.00;99.90
20041;DHT22;10181;48.072;9.884;2024-01-06T02:07:14;4.00;99.90
20041;DHT22;10181;48.072;9.884;2024-01-06T02:09:40;3.90;99.90
20041;DHT22;10181;48.072;9.884;2024-01-06T02:12:06;3.90;99.90
20041;DHT22;10181;48.072;9.884;2024-01-06T02:14:31;3.90;99.90
20041;DHT22;10181;48.072;9.884;2024-01-06T02:16:58;3.80;99.90
20041;DHT22;10181;48.072;9.884;2024-01-06T02:19:24;3.70;99.90
20041;DHT22;10181;48.072;9.884;2024-01-06T02:21:53;3.70;99.90
20041;DHT22;10181;48.072;9.884;2024-01-06T02:24:19;3.70;99.90
20041;DHT22;10181;48.072;9.884;2024-01-06T02:26:45;3.70;99.90
20041;DHT22;10181;48.072;9.884;2024-01-06T02:29:10;3.60;99.90
20041;DHT22;10181;48.072;9.884;2024-01-06T02:31:36;3.60;99.90
20041;DHT22;10181;48.072;9.884;2024-01-06T02:34:02;3.60;99.90
20041;DHT22;10181;48.072;9.884;2024-01-06T02:36:27;3.60;99.90
20041;DHT22;10181;48.072;9.884;2024-01-06T02:38:53;3.50;99.90
20041;DHT22;10181;48.072;9.884;2024-01-06T02:41:18;3.40;99.90
20041;DHT22;10181;48.072;9.884;2024-01-06T02:43:44;3.40;99.90
20041;DHT22;10181;48.072;9.884;2024-01-06T02:46:09;3.30;99.90
20041;DHT22;10181;48.072;9.884;2024-01-06T02:48:35;3.30;99.90
20041;DHT22;10181;48.072;9.884;2024-01-06T02:51:01;3.20;99.90
20041;DHT22;10181;48.072;9.884;2024-01-06T02:53:26;3.20;99.90
20041;DHT22;10181;48.072;9.884;2024-01-06T02:55:52;3.20;99.90
20041;DHT22;10181;48.072;9.884;2024-01-06T02:58:17;3.20;99.90
20041;DHT22;10181;48.072;9.884;2024-01-06T03:00:43;3.10;99.90
20041;DHT22;10181;48.072;9.884;2024-01-06T03:03:08;3.10;99.90
20041;DHT22;10181;48.072;9.884;2024-01-06T03:05:35;3.10;99.90
20041;DHT22;10181;48.072;9.884;2024-01-06T03:08:02;3.10;99.90
20041;DHT22;10181;48.072;9.884;2024-01-06T03:10:28;3.10;99.90
20041;DHT22;10181;48.072;9.884;2024-01-06T03:12:53;3.10;99.90
20041;DHT22;10181;48.072;9.884;2024-01-06T03:15:19;3.10;99.90
20041;DHT22;10181;48.072;9.884;2024-01-06T03:17:44;3.10;99.90
20041;DHT22;10181;48.072;9.884;2024-01-06T03:20:10;3.10;99.90
20041;DHT22;10181;48.072;9.884;2024-01-06T03:22:36;3.10;99.90
20041;DHT22;10181;48.072;9.884;2024-01-06T03:25:03;3.10;99.90
20041;DHT22;10181;48.072;9.884;2024-01-06T03:27:29;3.10;99.90
20041;DHT22;10181;48.072;9.884;2024-01-06T03:29:55;3.10;99.90
20041;DHT22;10181;48.072;9.884;2024-01-06T03:32:21;3.10;99.90
20041;DHT22;10181;48.072;9.884;2024-01-06T03:34:46;3.10;99.90
20041;DHT22;10181;48.072;9.884;2024-01-06T03:37:12;3.10;99.90
20041;DHT22;10181;48.072;9.884;2024-01-06T03:39:38;3.10;99.90
20041;DHT22;10181;48.072;9.884;2024-01-06T03:42:03;3.20;99.90
20041;DHT22;10181;48.072;9.884;2024-01-06T03:44:29;3.20;99.90
20041;DHT22;10181;48.072;9.884;2024-01-06T03:46:59;3.10;99.90
20041;DHT22;10181;48.072;9.884;2024-01-06T03:49:25;3.10;99.90
20041;DHT22;10181;48.072;9.884;2024-01-06T03:51:51;3.10;99.90
20041;DHT22;10181;48.072;9.884;2024-01-06T03:54:16;3.10;99.90
20041;DHT22;10181;48.072;9.884;2024-01-06T03:56:42;3.10;99.90
20041;DHT22;10181;48.072;9.884;2024-01-06T03:59:08;3.10;99.90
20041;DHT22;10181;48.072;9.884;2024-01-06T04:01:34;3.10;99.90
20041;DHT22;10181;48.072;9.884;2024-01-06T04:04:02;3.10;99.90
20041;DHT22;10181;48.072;9.884;2024-01-06T04:06:29;3.10;99.90
20041;DHT22;10181;48.072;9.884;2024-01-06T04:08:55;3.10;99.90
20041;DHT22;10181;48.072;9.884;2024-01-06T04:11:21;3.10;99.90
20041;DHT22;10181;48.072;9.884;2024-01-06T04:13:46;3.10;99.90
20041;DHT22;10181;48.072;9.884;2024-01-06T04:16:12;3.10;99.90
20041;DHT22;10181;48.072;9.884;2024-01-06T04:18:38;3.10;99.90
20041;DHT22;10181;48.072;9.884;2024-01-06T04:21:04;3.10;99.90
20041;DHT22;10181;48.072;9.884;2024-01-06T04:23:30;3.00;99.90
20041;DHT22;10181;48.072;9.884;2024-01-06T04:25:56;3.00;99.90
20041;DHT22;10181;48.072;9.884;2024-01-06T04:28:22;3.00;99.90
20041;DHT22;10181;48.072;9.884;2024-01-06T04:30:48;3.00;99.90
20041;DHT22;10181;48.072;9.884;2024-01-06T04:33:13;3.00;99.90
20041;DHT22;10181;48.072;9.884;2024-01-06T04:35:39;3.00;99.90
20041;DHT22;10181;48.072;9.884;2024-01-06T04:38:04;2.90;99.90
20041;DHT22;10181;48.072;9.884;2024-01-06T04:40:30;2.90;99.90
20041;DHT22;10181;48.072;9.884;2024-01-06T04:42:56;2.90;99.90
20041;DHT22;10181;48.072;9.884;2024-01-06T04:45:21;2.90;99.90
20041;DHT22;10181;48.072;9.884;2024-01-06T04:47:49;2.90;99.90
20041;DHT22;10181;48.072;9.884;2024-01-06T04:50:15;2.80;99.90
20041;DHT22;10181;48.072;9.884;2024-01-06T04:52:41;2.80;99.90
20041;DHT22;10181;48.072;9.884;2024-01-06T04:55:06;2.80;99.90
20041;DHT22;10181;48.072;9.884;2024-01-06T04:57:32;2.80;99.90
20041;DHT22;10181;48.072;9.884;2024-01-06T04:59:58;2.80;99.90
20041;DHT22;10181;48.072;9.884;2024-01-06T05:02:23;2.80;99.90
20041;DHT22;10181;48.072;9.884;2024-01-06T05:04:49;2.80;99.90
20041;DHT22;10181;48.072;9.884;2024-01-06T05:07:15;2.80;99.90
20041;DHT22;10181;48.072;9.884;2024-01-06T05:09:40;2.80;99.90
20041;DHT22;10181;48.072;9.884;2024-01-06T05:12:06;2.80;99.90
20041;DHT22;10181;48.072;9.884;2024-01-06T05:14:32;2.80;99.90
20041;DHT22;10181;48.072;9.884;2024-01-06T05:16:57;2.80;99.90
20041;DHT22;10181;48.072;9.884;2024-01-06T05:19:23;2.80;99.90
20041;DHT22;10181;48.072;9.884;2024-01-06T05:21:49;2.80;99.90
20041;DHT22;10181;48.072;9.884;2024-01-06T05:24:15;2.80;99.90
20041;DHT22;10181;48.072;9.884;2024-01-06T05:26:41;2.80;99.90
20041;DHT22;10181;48.072;9.884;2024-01-06T05:29:07;2.70;99.90
20041;DHT22;10181;48.072;9.884;2024-01-06T05:31:33;2.70;99.90
20041;DHT22;10181;48.072;9.884;2024-01-06T05:33:58;2.70;99.90
20041;DHT22;10181;48.072;9.884;2024-01-06T05:36:24;2.70;99.90
20041;DHT22;10181;48.072;9.884;2024-01-06T05:38:50;2.70;99.90
20041;DHT22;10181;48.072;9.884;2024-01-06T05:41:16;2.60;99.90
20041;DHT22;10181;48.072;9.884;2024-01-06T05:43:41;2.60;99.90
20041;DHT22;10181;48.072;9.884;2024-01-06T05:46:07;2.60;99.90
20041;DHT22;10181;48.072;9.884;2024-01-06T05:48:33;2.60;99.90
20041;DHT22;10181;48.072;9.884;2024-01-06T05:50:59;2.50;99.90
20041;DHT22;10181;48.072;9.884;2024-01-06T05:53:24;2.60;99.90
20041;DHT22;10181;48.072;9.884;2024-01-06T05:55:50;2.50;99.90
20041;DHT22;10181;48.072;9.884;2024-01-06T05:58:16;2.50;99.90
20041;DHT22;10181;48.072;9.884;2024-01-06T06:00:41;2.50;99.90
20041;DHT22;10181;48.072;9.884;2024-01-06T06:03:07;2.50;99.90
20041;DHT22;10181;48.072;9.884;2024-01-06T06:05:33;2.40;99.90
20041;DHT22;10181;48.072;9.884;2024-01-06T06:07:59;2.40;99.90
20041;DHT22;10181;48.072;9.884;2024-01-06T06:10:24;2.40;99.90
20041;DHT22;10181;48.072;9.884;2024-01-06T06:12:55;2.40;99.90
20041;DHT22;10181;48.072;9.884;2024-01-06T06:15:21;2.40;99.90
20041;DHT22;10181;48.072;9.884;2024-01-06T06:17:46;2.40;99.90
20041;DHT22;10181;48.072;9.884;2024-01-06T06:20:12;2.40;99.90
20041;DHT22;10181;48.072;9.884;2024-01-06T06:22:38;2.40;99.90
20041;DHT22;10181;48.072;9.884;2024-01-06T06:25:03;2.30;99.90
20041;DHT22;10181;48.072;9.884;2024-01-06T06:27:29;2.30;99.90
20041;DHT22;10181;48.072;9.884;2024-01-06T06:29:55;2.30;99.90
20041;DHT22;10181;48.072;9.884;2024-01-06T06:32:21;2.30;99.90
20041;DHT22;10181;48.072;9.884;2024-01-06T06:34:47;2.30;99.90
20041;DHT22;10181;48.072;9.884;2024-01-06T06:37:12;2.20;99.90
20041;DHT22;10181;48.072;9.884;2024-01-06T06:39:38;2.20;99.90
20041;DHT22;10181;48.072;9.884;2024-01-06T06:42:04;2.20;99.90
20041;DHT22;10181;48.072;9.884;2024-01-06T06:44:30;2.20;99.90
20041;DHT22;10181;48.072;9.884;2024-01-06T06:46:56;2.20;99.90
20041;DHT22;10181;48.072;9.884;2024-01-06T06:49:21;2.20;99.90
20041;DHT22;10181;48.072;9.884;2024-01-06T06:51:47;2.20;99.90
20041;DHT22;10181;48.072;9.884;2024-01-06T06:54:14;2.20;99.90
20041;DHT22;10181;48.072;9.884;2024-01-06T06:56:41;2.20;99.90
20041;DHT22;10181;48.072;9.884;2024-01-06T06:59:07;2.20;99.90
20041;DHT22;10181;48.072;9.884;2024-01-06T07:01:33;2.20;99.90
20041;DHT22;10181;48.072;9.884;2024-01-06T07:03:59;2.20;99.90
20041;DHT22;10181;48.072;9.884;2024-01-06T07:06:25;2.20;99.90
20041;DHT22;10181;48.072;9.884;2024-01-06T07:08:50;2.20;99.90
20041;DHT22;10181;48.072;9.884;2024-01-06T07:11:16;2.20;99.90
20041;DHT22;10181;48.072;9.884;2024-01-06T07:13:44;2.10;99.90
20041;DHT22;10181;48.072;9.884;2024-01-06T07:16:09;2.10;99.90
20041;DHT22;10181;48.072;9.884;2024-01-06T07:18:35;2.10;99.90
20041;DHT22;10181;48.072;9.884;2024-01-06T07:21:00;2.10;99.90
20041;DHT22;10181;48.072;9.884;2024-01-06T07:23:26;2.10;99.90
20041;DHT22;10181;48.072;9.884;2024-01-06T07:25:52;2.10;99.90
20041;DHT22;10181;48.072;9.884;2024-01-06T07:28:17;2.10;99.90
20041;DHT22;10181;48.072;9.884;2024-01-06T07:30:43;2.10;99.90
20041;DHT22;10181;48.072;9.884;2024-01-06T07:33:09;2.10;99.90
20041;DHT22;10181;48.072;9.884;2024-01-06T07:35:34;2.10;99.90
20041;DHT22;10181;48.072;9.884;2024-01-06T07:38:00;2.10;99.90
20041;DHT22;10181;48.072;9.884;2024-01-06T07:40:26;2.10;99.90
20041;DHT22;10181;48.072;9.884;2024-01-06T07:42:51;2.10;99.90
20041;DHT22;10181;48.072;9.884;2024-01-06T07:45:17;2.10;99.90
20041;DHT22;10181;48.072;9.884;2024-01-06T07:47:42;2.10;99.90
20041;DHT22;10181;48.072;9.884;2024-01-06T07:50:09;2.10;99.90
20041;DHT22;10181;48.072;9.884;2024-01-06T07:52:35;2.20;99.90
20041;DHT22;10181;48.072;9.884;2024-01-06T07:55:00;2.20;99.90
20041;DHT22;10181;48.072;9.884;2024-01-06T07:57:26;2.20;99.90
20041;DHT22;10181;48.072;9.884;2024-01-06T07:59:51;2.20;99.90
20041;DHT22;10181;48.072;9.884;2024-01-06T08:02:17;2.20;99.90
20041;DHT22;10181;48.072;9.884;2024-01-06T08:04:42;2.20;99.90
20041;DHT22;10181;48.072;9.884;2024-01-06T08:07:08;2.20;99.90
20041;DHT22;10181;48.072;9.884;2024-01-06T08:09:34;2.20;99.90
20041;DHT22;10181;48.072;9.884;2024-01-06T08:11:59;2.30;99.90
20041;DHT22;10181;48.072;9.884;2024-01-06T08:14:25;2.30;99.90
20041;DHT22;10181;48.072;9.884;2024-01-06T08:16:51;2.30;99.90
20041;DHT22;10181;48.072;9.884;2024-01-06T08:19:16;2.30;99.90
20041;DHT22;10181;48.072;9.884;2024-01-06T08:21:42;2.30;99.90
20041;DHT22;10181;48.072;9.884;2024-01-06T08:24:07;2.30;99.90
20041;DHT22;10181;48.072;9.884;2024-01-06T08:26:33;2.30;99.90
20041;DHT22;10181;48.072;9.884;2024-01-06T08:28:59;2.30;99.90
20041;DHT22;10181;48.072;9.884;2024-01-06T08:31:24;2.40;99.90
20041;DHT22;10181;48.072;9.884;2024-01-06T08:33:50;2.40;99.90
20041;DHT22;10181;48.072;9.884;2024-01-06T08:36:17;2.40;99.90
20041;DHT22;10181;48.072;9.884;2024-01-06T08:38:42;2.40;99.90
20041;DHT22;10181;48.072;9.884;2024-01-06T08:41:08;2.40;99.90
20041;DHT22;10181;48.072;9.884;2024-01-06T08:43:33;2.50;99.90
20041;DHT22;10181;48.072;9.884;2024-01-06T08:45:59;2.50;99.90
20041;DHT22;10181;48.072;9.884;2024-01-06T08:48:25;2.50;99.90
20041;DHT22;10181;48.072;9.884;2024-01-06T08:50:51;2.50;99.90
20041;DHT22;10181;48.072;9.884;2024-01-06T08:53:17;2.50;99.90
20041;DHT22;10181;48.072;9.884;2024-01-06T08:55:42;2.50;99.90
20041;DHT22;10181;48.072;9.884;2024-01-06T08:58:08;2.50;99.90
20041;DHT22;10181;48.072;9.884;2024-01-06T09:00:34;2.50;99.90
20041;DHT22;10181;48.072;9.884;2024-01-06T09:02:59;2.50;99.90
20041;DHT22;10181;48.072;9.884;2024-01-06T09:05:25;2.60;99.90
20041;DHT22;10181;48.072;9.884;2024-01-06T09:07:51;2.60;99.90
20041;DHT22;10181;48.072;9.884;2024-01-06T09:10:17;2.70;99.90
20041;DHT22;10181;48.072;9.884;2024-01-06T09:12:43;2.70;99.90
20041;DHT22;10181;48.072;9.884;2024-01-06T09:15:09;2.80;99.90
20041;DHT22;10181;48.072;9.884;2024-01-06T09:17:34;2.80;99.90
20041;DHT22;10181;48.072;9.884;2024-01-06T09:20:01;2.80;99.90
20041;DHT22;10181;48.072;9.884;2024-01-06T09:22:27;2.70;99.90
20041;DHT22;10181;48.072;9.884;2024-01-06T09:24:52;2.70;99.90
20041;DHT22;10181;48.072;9.884;2024-01-06T09:27:19;2.70;99.90
20041;DHT22;10181;48.072;9.884;2024-01-06T09:29:44;2.70;99.90
20041;DHT22;10181;48.072;9.884;2024-01-06T09:32:10;2.70;99.90
20041;DHT22;10181;48.072;9.884;2024-01-06T09:34:35;2.70;99.90
20041;DHT22;10181;48.072;9.884;2024-01-06T09:37:01;2.70;99.90
20041;DHT22;10181;48.072;9.884;2024-01-06T09:39:27;2.80;99.90
20041;DHT22;10181;48.072;9.884;2024-01-06T09:41:52;2.80;99.90
20041;DHT22;10181;48.072;9.884;2024-01-06T09:44:18;2.80;99.90
20041;DHT22;10181;48.072;9.884;2024-01-06T09:46:44;2.80;99.90
20041;DHT22;10181;48.072;9.884;2024-01-06T09:49:10;2.80;99.90
20041;DHT22;10181;48.072;9.884;2024-01-06T09:51:37;2.90;99.90
20041;DHT22;10181;48.072;9.884;2024-01-06T09:54:09;2.90;99.90
20041;DHT22;10181;48.072;9.884;2024-01-06T09:56:39;2.90;99.90
20041;DHT22;10181;48.072;9.884;2024-01-06T09:59:05;3.00;99.90
20041;DHT22;10181;48.072;9.884;2024-01-06T10:01:30;3.10;99.90
20041;DHT22;10181;48.072;9.884;2024-01-06T10:03:56;3.20;99.90
20041;DHT22;10181;48.072;9.884;2024-01-06T10:06:21;3.20;99.90
20041;DHT22;10181;48.072;9.884;2024-01-06T10:08:51;3.10;99.90
20041;DHT22;10181;48.072;9.884;2024-01-06T10:11:23;3.20;99.90
20041;DHT22;10181;48.072;9.884;2024-01-06T10:13:52;3.20;99.90
20041;DHT22;10181;48.072;9.884;2024-01-06T10:16:20;3.20;99.90
20041;DHT22;10181;48.072;9.884;2024-01-06T10:18:46;3.30;99.90
20041;DHT22;10181;48.072;9.884;2024-01-06T10:21:12;3.40;99.90
20041;DHT22;10181;48.072;9.884;2024-01-06T10:23:38;3.40;99.90
20041;DHT22;10181;48.072;9.884;2024-01-06T10:26:04;3.40;99.90
20041;DHT22;10181;48.072;9.884;2024-01-06T10:28:30;3.50;99.90
20041;DHT22;10181;48.072;9.884;2024-01-06T10:30:56;3.60;99.90
20041;DHT22;10181;48.072;9.884;2024-01-06T10:33:23;3.60;99.90
20041;DHT22;10181;48.072;9.884;2024-01-06T10:35:50;3.60;99.90
20041;DHT22;10181;48.072;9.884;2024-01-06T10:38:16;3.60;99.90
20041;DHT22;10181;48.072;9.884;2024-01-06T10:41:03;3.60;99.90
20041;DHT22;10181;48.072;9.884;2024-01-06T10:43:33;3.60;99.90
20041;DHT22;10181;48.072;9.884;2024-01-06T10:46:03;3.70;99.90
20041;DHT22;10181;48.072;9.884;2024-01-06T10:48:34;3.70;99.90
20041;DHT22;10181;48.072;9.884;2024-01-06T10:51:01;3.80;99.90
20041;DHT22;10181;48.072;9.884;2024-01-06T10:53:33;3.70;99.90
20041;DHT22;10181;48.072;9.884;2024-01-06T10:56:03;3.80;99.90
20041;DHT22;10181;48.072;9.884;2024-01-06T10:58:30;3.70;99.90
20041;DHT22;10181;48.072;9.884;2024-01-06T11:00:56;3.60;99.90
20041;DHT22;10181;48.072;9.884;2024-01-06T11:03:22;3.70;99.90
20041;DHT22;10181;48.072;9.884;2024-01-06T11:05:49;3.80;99.90
20041;DHT22;10181;48.072;9.884;2024-01-06T11:08:17;3.80;99.90
20041;DHT22;10181;48.072;9.884;2024-01-06T11:10:43;3.90;99.90
20041;DHT22;10181;48.072;9.884;2024-01-06T11:15:44;3.90;99.90
20041;DHT22;10181;48.072;9.884;2024-01-06T11:23:38;3.90;99.90
20041;DHT22;10181;48.072;9.884;2024-01-06T11:26:03;3.90;99.90
20041;DHT22;10181;48.072;9.884;2024-01-06T11:28:31;3.90;99.90
20041;DHT22;10181;48.072;9.884;2024-01-06T11:31:09;4.00;99.90
20041;DHT22;10181;48.072;9.884;2024-01-06T11:33:42;4.10;99.90
20041;DHT22;10181;48.072;9.884;2024-01-06T11:36:09;4.00;99.90
20041;DHT22;10181;48.072;9.884;2024-01-06T11:38:38;4.00;99.90
20041;DHT22;10181;48.072;9.884;2024-01-06T11:41:07;4.00;99.90
20041;DHT22;10181;48.072;9.884;2024-01-06T11:43:34;3.90;99.90
20041;DHT22;10181;48.072;9.884;2024-01-06T11:46:05;3.90;99.90
20041;DHT22;10181;48.072;9.884;2024-01-06T11:48:32;3.90;99.90
20041;DHT22;10181;48.072;9.884;2024-01-06T11:50:58;4.00;99.90
20041;DHT22;10181;48.072;9.884;2024-01-06T11:53:26;4.00;99.90
20041;DHT22;10181;48.072;9.884;2024-01-06T11:55:52;4.00;99.90
20041;DHT22;10181;48.072;9.884;2024-01-06T11:58:18;4.00;99.90
20041;DHT22;10181;48.072;9.884;2024-01-06T12:00:43;4.10;99.90
20041;DHT22;10181;48.072;9.884;2024-01-06T12:03:09;4.10;99.90
20041;DHT22;10181;48.072;9.884;2024-01-06T12:05:35;4.00;99.90
20041;DHT22;10181;48.072;9.884;2024-01-06T12:08:02;3.90;99.90
20041;DHT22;10181;48.072;9.884;2024-01-06T12:10:31;3.80;99.90
20041;DHT22;10181;48.072;9.884;2024-01-06T12:13:02;3.90;99.90
20041;DHT22;10181;48.072;9.884;2024-01-06T12:15:30;3.80;99.90
20041;DHT22;10181;48.072;9.884;2024-01-06T12:17:56;3.70;99.90
20041;DHT22;10181;48.072;9.884;2024-01-06T12:20:26;3.70;99.90
20041;DHT22;10181;48.072;9.884;2024-01-06T12:22:52;3.70;99.90
20041;DHT22;10181;48.072;9.884;2024-01-06T12:25:21;3.70;99.90
20041;DHT22;10181;48.072;9.884;2024-01-06T12:27:48;3.70;99.90
20041;DHT22;10181;48.072;9.884;2024-01-06T12:30:19;3.60;99.90
20041;DHT22;10181;48.072;9.884;2024-01-06T12:32:46;3.60;99.90
20041;DHT22;10181;48.072;9.884;2024-01-06T12:35:14;3.60;99.90
20041;DHT22;10181;48.072;9.884;2024-01-06T12:37:42;3.60;99.90
20041;DHT22;10181;48.072;9.884;2024-01-06T12:40:15;3.60;99.90
20041;DHT22;10181;48.072;9.884;2024-01-06T12:42:43;3.60;99.90
20041;DHT22;10181;48.072;9.884;2024-01-06T12:45:09;3.60;99.90
20041;DHT22;10181;48.072;9.884;2024-01-06T12:47:35;3.50;99.90
20041;DHT22;10181;48.072;9.884;2024-01-06T12:50:01;3.60;99.90
20041;DHT22;10181;48.072;9.884;2024-01-06T12:52:27;3.60;99.90
20041;DHT22;10181;48.072;9.884;2024-01-06T12:54:52;3.60;99.90
20041;DHT22;10181;48.072;9.884;2024-01-06T12:57:18;3.60;99.90
20041;DHT22;10181;48.072;9.884;2024-01-06T12:59:43;3.60;99.90
20041;DHT22;10181;48.072;9.884;2024-01-06T13:02:09;3.60;99.90
20041;DHT22;10181;48.072;9.884;2024-01-06T13:04:35;3.50;99.90
20041;DHT22;10181;48.072;9.884;2024-01-06T13:07:00;3.60;99.90
20041;DHT22;10181;48.072;9.884;2024-01-06T13:09:27;3.60;99.90
20041;DHT22;10181;48.072;9.884;2024-01-06T13:11:53;3.70;99.90
20041;DHT22;10181;48.072;9.884;2024-01-06T13:14:21;3.60;99.90
20041;DHT22;10181;48.072;9.884;2024-01-06T13:16:46;3.60;99.90
20041;DHT22;10181;48.072;9.884;2024-01-06T13:19:12;3.60;99.90
20041;DHT22;10181;48.072;9.884;2024-01-06T13:21:38;3.50;99.90
20041;DHT22;10181;48.072;9.884;2024-01-06T13:24:06;3.50;99.90
20041;DHT22;10181;48.072;9.884;2024-01-06T13:26:31;3.50;99.90
20041;DHT22;10181;48.072;9.884;2024-01-06T13:28:57;3.60;99.90
20041;DHT22;10181;48.072;9.884;2024-01-06T13:31:23;3.70;99.90
20041;DHT22;10181;48.072;9.884;2024-01-06T13:33:49;3.60;99.90
20041;DHT22;10181;48.072;9.884;2024-01-06T13:36:17;3.60;99.90
20041;DHT22;10181;48.072;9.884;2024-01-06T13:38:43;3.60;99.90
20041;DHT22;10181;48.072;9.884;2024-01-06T13:41:09;3.60;99.90
20041;DHT22;10181;48.072;9.884;2024-01-06T13:43:35;3.60;99.90
20041;DHT22;10181;48.072;9.884;2024-01-06T13:46:00;3.60;99.90
20041;DHT22;10181;48.072;9.884;2024-01-06T13:48:26;3.70;99.90
20041;DHT22;10181;48.072;9.884;2024-01-06T13:50:52;3.60;99.90
20041;DHT22;10181;48.072;9.884;2024-01-06T13:53:18;3.60;99.90
20041;DHT22;10181;48.072;9.884;2024-01-06T13:55:44;3.60;99.90
20041;DHT22;10181;48.072;9.884;2024-01-06T13:58:10;3.70;99.90
20041;DHT22;10181;48.072;9.884;2024-01-06T14:00:36;3.70;99.90
20041;DHT22;10181;48.072;9.884;2024-01-06T14:03:02;3.70;99.90
20041;DHT22;10181;48.072;9.884;2024-01-06T14:05:28;3.70;99.90
20041;DHT22;10181;48.072;9.884;2024-01-06T14:07:54;3.70;99.90
20041;DHT22;10181;48.072;9.884;2024-01-06T14:10:20;3.60;99.90
20041;DHT22;10181;48.072;9.884;2024-01-06T14:12:45;3.70;99.90
20041;DHT22;10181;48.072;9.884;2024-01-06T14:15:11;3.70;99.90
20041;DHT22;10181;48.072;9.884;2024-01-06T14:17:38;3.70;99.90
20041;DHT22;10181;48.072;9.884;2024-01-06T14:20:04;3.60;99.90
20041;DHT22;10181;48.072;9.884;2024-01-06T14:22:30;3.60;99.90
20041;DHT22;10181;48.072;9.884;2024-01-06T14:24:55;3.60;99.90
20041;DHT22;10181;48.072;9.884;2024-01-06T14:27:21;3.60;99.90
20041;DHT22;10181;48.072;9.884;2024-01-06T14:29:48;3.60;99.90
20041;DHT22;10181;48.072;9.884;2024-01-06T14:32:14;3.60;99.90
20041;DHT22;10181;48.072;9.884;2024-01-06T14:34:39;3.50;99.90
20041;DHT22;10181;48.072;9.884;2024-01-06T14:37:05;3.50;99.90
20041;DHT22;10181;48.072;9.884;2024-01-06T14:39:31;3.50;99.90
20041;DHT22;10181;48.072;9.884;2024-01-06T14:41:56;3.50;99.90
20041;DHT22;10181;48.072;9.884;2024-01-06T14:44:22;3.50;99.90
20041;DHT22;10181;48.072;9.884;2024-01-06T14:46:48;3.50;99.90
20041;DHT22;10181;48.072;9.884;2024-01-06T14:49:16;3.50;99.90
20041;DHT22;10181;48.072;9.884;2024-01-06T14:51:42;3.50;99.90
20041;DHT22;10181;48.072;9.884;2024-01-06T14:54:07;3.40;99.90
20041;DHT22;10181;48.072;9.884;2024-01-06T14:56:37;3.40;99.90
20041;DHT22;10181;48.072;9.884;2024-01-06T14:59:04;3.40;99.90
20041;DHT22;10181;48.072;9.884;2024-01-06T15:01:29;3.40;99.90
20041;DHT22;10181;48.072;9.884;2024-01-06T15:03:55;3.40;99.90
20041;DHT22;10181;48.072;9.884;2024-01-06T15:06:20;3.40;99.90
20041;DHT22;10181;48.072;9.884;2024-01-06T15:08:46;3.40;99.90
20041;DHT22;10181;48.072;9.884;2024-01-06T15:11:12;3.40;99.90
20041;DHT22;10181;48.072;9.884;2024-01-06T15:13:38;3.40;99.90
20041;DHT22;10181;48.072;9.884;2024-01-06T15:16:03;3.50;99.90
20041;DHT22;10181;48.072;9.884;2024-01-06T15:18:29;3.50;99.90
20041;DHT22;10181;48.072;9.884;2024-01-06T15:20:55;3.40;99.90
20041;DHT22;10181;48.072;9.884;2024-01-06T15:23:21;3.40;99.90
20041;DHT22;10181;48.072;9.884;2024-01-06T15:25:46;3.40;99.90
20041;DHT22;10181;48.072;9.884;2024-01-06T15:28:12;3.40;99.90
20041;DHT22;10181;48.072;9.884;2024-01-06T15:30:38;3.40;99.90
20041;DHT22;10181;48.072;9.884;2024-01-06T15:33:04;3.30;99.90
20041;DHT22;10181;48.072;9.884;2024-01-06T15:35:30;3.30;99.90
20041;DHT22;10181;48.072;9.884;2024-01-06T15:37:55;3.30;99.90
20041;DHT22;10181;48.072;9.884;2024-01-06T15:40:21;3.30;99.90
20041;DHT22;10181;48.072;9.884;2024-01-06T15:42:47;3.30;99.90
20041;DHT22;10181;48.072;9.884;2024-01-06T15:45:13;3.20;99.90